Stamford, United Kingdom
Current Conditions -  °F | °C
As of 5:50 AM on Friday 31 Oct 2014 (Local Time) from EGXT Reporting Station
Broken Clouds Broken Clouds  
Wind Chill: 14°   Ceiling: 300
Heat Index: 14°   Visibility: 1.8mi
Dew Point: 14°   Wind: 10mph
Humidity: 100%   Direction: 200°SSW
Pressure: 30"   Gusts: NA
Location:  52.65°N, 0.48°W
Report Text: EGXT 310550Z AUTO 20009KT 2900 // BKN003/// 14/14 Q1016
Loading
Personal Weather Stations






























Interactive Weather Map
Tropical Storm Tracking
New forecast layout! Learn more

10-Day Weather Forecast

Advertisements
Track Severe Weather on mobile